Impacts METAR Board
IDs:

KMKN - Comanche Cnty, TX, US

Updated at: 0500 UTC 19 Aug 2019
Potential Impact None Slight Moderate High
Time 18/17Z 18/18Z 18/19Z 18/20Z 18/21Z 18/22Z 18/23Z 19/00Z 19/01Z 19/02Z 19/03Z 19/04Z 19/05Z
Temp94 98 100 101 102 103 102 98 94 89 86 82 83
Dewpt66 66 66 64 63 62 59 61 62 62 63 64 64
Altim29.92 29.91 29.90 29.88 29.87 29.86 29.85 29.85 29.85 29.86 29.88 29.92 29.93
VIS10 10 10 10 10 10 10 10 10 10 10 10 10
CIG-- -- -- -- -- -- -- -- -- -- -- -- --
CoverCLRCLRCLRCLRCLRCLRCLRCLRCLRCLRCLRCLRCLR
FltCatVFRVFRVFRVFRVFRVFRVFRVFRVFRVFRVFRVFRVFR
WX--------------------------
WDir200180190190200150140140130150160140160
WSpd11 9 6 7 5 11 10 10 10 7 7 5 6
WGst18 15 -- -- 19 -- 15 -- -- -- -- -- --
Raw hourly METARs
KMKN 181655Z AUTO 20011G18KT 10SM CLR 35/19 A2992 RMK AO2 T03450188
KMKN 181755Z AUTO 18009G15KT 10SM CLR 37/19 A2991 RMK AO2 T03650191 10366 20254
KMKN 181855Z AUTO 19006KT 10SM CLR 38/19 A2990 RMK AO2 T03800188
KMKN 181955Z AUTO 19007KT 160V220 10SM CLR 39/18 A2988 RMK AO2 T03850176
KMKN 182055Z AUTO 20005G19KT 10SM CLR 39/17 A2987 RMK AO2 T03870170
KMKN 182155Z AUTO 15011KT 10SM CLR 40/17 A2986 RMK AO2 T03950166
KMKN 182255Z AUTO 14010G15KT 10SM CLR 39/15 A2985 RMK AO2 T03870152
KMKN 182355Z AUTO 14010KT 10SM CLR 37/16 A2985 RMK AO2 T03670160 10399 20362
KMKN 190055Z AUTO 13010KT 10SM CLR 34/17 A2985 RMK AO2 T03430166
KMKN 190155Z AUTO 15007KT 10SM CLR 32/17 A2986 RMK AO2 T03190169
KMKN 190255Z AUTO 16007KT 10SM CLR 30/17 A2988 RMK AO2 T03000171
KMKN 190355Z AUTO 14005KT 10SM CLR 28/18 A2992 RMK AO2 T02800175
KMKN 190455Z AUTO 16006KT 10SM CLR 29/18 A2993 RMK AO2 T02850179



Page loaded:  05:37 UTC  |   10:37 PM Pacific  |   11:37 PM Mountain  |   12:37 AM Central  |   01:37 AM Eastern

 

ADVISORIES

FORECASTS

FORECASTS

OBSERVATIONS

USER TOOLS

ABOUT US